Time;durP1;ratioP1;P1;durP2;ratioP2;P2;SDS_P1;SDS_P2;PMS_P1;PMS_P2;Temp;Humidity;BMP_temperature;BMP_pressure;BME280_temperature;BME280_humidity;BME280_pressure;Samples;Min_cycle;Max_cycle;Signal;HPM_P1;HPM_P2
2022/10/05 00:01:38;;;;;;;6.55;3.30;;;;;;;;;;4989970;28;20087;-80
2022/10/05 00:04:14;;;;;;;8.65;2.95;;;;;;;;;;4993582;28;20098;-79
2022/10/05 00:06:40;;;;;;;7.60;3.25;;;;;;;;;;5002720;28;20018;-79
2022/10/05 00:09:13;;;;;;;9.30;3.28;;;;;;;;;;4987040;28;20030;-79
2022/10/05 00:11:39;;;;;;;8.55;3.22;;;;;;;;;;4997589;28;20022;-80
2022/10/05 00:14:15;;;;;;;6.68;3.33;;;;;;;;;;5010151;28;20027;-81
2022/10/05 00:16:41;;;;;;;8.38;3.33;;;;;;;;;;5015191;28;20014;-81
2022/10/05 00:19:12;;;;;;;7.97;3.38;;;;;;;;;;5000889;28;20058;-79
2022/10/05 00:21:38;;;;;;;8.15;3.28;;;;;;;;;;4992256;28;20481;-79
2022/10/05 00:24:09;;;;;;;11.77;4.45;;;;;;;;;;4977484;28;20034;-78
2022/10/05 00:26:35;;;;;;;7.22;2.97;;;;;;;;;;4959614;28;20031;-78
2022/10/05 00:29:02;;;;;;;6.80;3.40;;;;;;;;;;4985460;28;20029;-78
2022/10/05 00:31:30;;;;;;;5.30;3.22;;;;;;;;;;4986449;28;20033;-78
2022/10/05 00:34:04;;;;;;;9.07;3.40;;;;;;;;;;4977291;28;20038;-79
2022/10/05 00:36:30;;;;;;;5.47;3.17;;;;;;;;;;4985670;28;20396;-79
2022/10/05 00:38:56;;;;;;;7.50;3.28;;;;;;;;;;4977331;28;20098;-80
2022/10/05 00:41:25;;;;;;;6.57;3.25;;;;;;;;;;4967341;28;20062;-79
2022/10/05 00:44:04;;;;;;;7.97;3.15;;;;;;;;;;4990083;28;20031;-79
2022/10/05 00:46:48;;;;;;;5.68;3.60;;;;;;;;;;4985655;28;20029;-81
2022/10/05 00:49:26;;;;;;;11.75;4.10;;;;;;;;;;4967098;28;20377;-78
2022/10/05 00:52:01;;;;;;;8.93;3.53;;;;;;;;;;4976278;28;20069;-78
2022/10/05 00:54:35;;;;;;;6.70;3.40;;;;;;;;;;4976850;28;20400;-78
2022/10/05 01:03:18;;;;;;;;;;;;;;;;;;;;;
2022/10/05 01:12:09;;;;;;;5.88;3.28;;;;;;;;;;4950877;28;20104;-80
2022/10/05 01:21:04;;;;;;;;;;;;;;;;;;4864738;29;20033;-79
2022/10/05 01:23:47;;;;;;;6.32;3.03;;;;;;;;;;4895972;29;19919;-79
2022/10/05 01:26:19;;;;;;;5.22;3.15;;;;;;;;;;4896478;29;20565;-80
2022/10/05 01:29:04;;;;;;;5.28;2.67;;;;;;;;;;4933800;29;20027;-79
2022/10/05 01:31:33;;;;;;;7.10;3.13;;;;;;;;;;4954479;29;20023;-80
2022/10/05 01:34:12;;;;;;;6.00;3.05;;;;;;;;;;4941463;29;20032;-80
2022/10/05 01:36:41;;;;;;;10.75;3.90;;;;;;;;;;4939222;29;20529;-80
2022/10/05 01:39:33;;;;;;;3.35;3.03;;;;;;;;;;4926497;29;20027;-80
2022/10/05 01:42:12;;;;;;;5.90;2.80;;;;;;;;;;4937921;29;20059;-80
2022/10/05 01:44:48;;;;;;;7.68;2.95;;;;;;;;;;4956552;29;20031;-80
2022/10/05 01:47:33;;;;;;;6.80;3.08;;;;;;;;;;4959661;29;20027;-79
2022/10/05 01:50:22;;;;;;;9.27;3.15;;;;;;;;;;4938774;29;20027;-79
2022/10/05 01:53:10;;;;;;;5.32;3.85;;;;;;;;;;4914148;29;20565;-79
2022/10/05 01:55:39;;;;;;;11.10;3.38;;;;;;;;;;4925824;29;20426;-79
2022/10/05 01:58:18;;;;;;;6.65;3.75;;;;;;;;;;4935358;29;20058;-79
2022/10/05 02:00:49;;;;;;;5.68;3.30;;;;;;;;;;4929164;29;20048;-79
2022/10/05 02:03:20;;;;;;;5.88;3.35;;;;;;;;;;4933736;29;20024;-80
2022/10/05 02:05:52;;;;;;;7.85;3.67;;;;;;;;;;4926975;29;20071;-79
2022/10/05 02:08:47;;;;;;;7.63;3.30;;;;;;;;;;4931368;29;20086;-77
2022/10/05 02:11:14;;;;;;;9.07;4.32;;;;;;;;;;4923803;29;20035;-77
2022/10/05 02:13:43;;;;;;;8.80;3.58;;;;;;;;;;4943607;29;20047;-78
2022/10/05 02:16:15;;;;;;;6.03;3.42;;;;;;;;;;4940864;29;20035;-77
2022/10/05 02:18:44;;;;;;;7.70;3.38;;;;;;;;;;4924443;29;20059;-79
2022/10/05 02:21:10;;;;;;;6.60;3.53;;;;;;;;;;4949088;28;20037;-78
2022/10/05 02:23:39;;;;;;;6.35;3.58;;;;;;;;;;4935869;29;20032;-78
2022/10/05 02:26:06;;;;;;;8.55;3.63;;;;;;;;;;4944517;28;20062;-78
2022/10/05 02:28:37;;;;;;;8.07;3.17;;;;;;;;;;4943768;29;20063;-80
2022/10/05 02:31:06;;;;;;;5.43;3.45;;;;;;;;;;4938523;29;20054;-79
2022/10/05 02:33:33;;;;;;;4.85;3.10;;;;;;;;;;4937430;29;20020;-78
2022/10/05 02:36:16;;;;;;;6.25;3.53;;;;;;;;;;4948450;29;20086;-79
2022/10/05 02:39:00;;;;;;;5.15;3.45;;;;;;;;;;4946914;28;20253;-79
2022/10/05 02:41:32;;;;;;;6.00;3.72;;;;;;;;;;4940764;29;20103;-78
2022/10/05 02:44:01;;;;;;;8.02;4.25;;;;;;;;;;4935927;29;20078;-79
2022/10/05 02:46:33;;;;;;;7.07;3.17;;;;;;;;;;4939286;29;20036;-80
2022/10/05 02:49:11;;;;;;;5.20;3.22;;;;;;;;;;4931377;29;20048;-80
2022/10/05 02:51:50;;;;;;;5.43;3.00;;;;;;;;;;4954712;28;20393;-79
2022/10/05 02:54:29;;;;;;;5.68;3.00;;;;;;;;;;4938827;29;20024;-79
2022/10/05 02:56:54;;;;;;;4.72;3.10;;;;;;;;;;4950825;29;20103;-78
2022/10/05 02:59:40;;;;;;;3.90;2.75;;;;;;;;;;4925774;29;20103;-81
2022/10/05 03:02:11;;;;;;;10.40;3.25;;;;;;;;;;4943487;29;20038;-79
2022/10/05 03:04:37;;;;;;;7.43;3.30;;;;;;;;;;4951438;29;20490;-79
2022/10/05 03:07:08;;;;;;;7.32;3.55;;;;;;;;;;4944697;29;20111;-77
2022/10/05 03:09:41;;;;;;;8.03;4.20;;;;;;;;;;4944104;29;20088;-79
2022/10/05 03:12:07;;;;;;;5.60;4.20;;;;;;;;;;4946966;29;20482;-78
2022/10/05 03:14:39;;;;;;;9.98;4.40;;;;;;;;;;4939236;29;20038;-78
2022/10/05 03:17:05;;;;;;;8.48;4.95;;;;;;;;;;4934784;29;20078;-77
2022/10/05 03:19:31;;;;;;;14.00;4.90;;;;;;;;;;4935518;29;20184;-78
2022/10/05 03:22:00;;;;;;;7.38;4.53;;;;;;;;;;4946962;28;20031;-78
2022/10/05 03:24:35;;;;;;;8.77;4.50;;;;;;;;;;4934933;29;20434;-78
2022/10/05 03:27:13;;;;;;;7.28;4.65;;;;;;;;;;4935566;29;20189;-79
2022/10/05 03:29:46;;;;;;;10.10;4.70;;;;;;;;;;4934914;29;20383;-79
2022/10/05 03:32:21;;;;;;;7.07;4.05;;;;;;;;;;4935531;29;20054;-79
2022/10/05 03:34:47;;;;;;;7.20;3.92;;;;;;;;;;4935447;29;20024;-79
2022/10/05 03:37:17;;;;;;;7.88;4.32;;;;;;;;;;4934517;29;20034;-77
2022/10/05 03:39:53;;;;;;;5.70;3.95;;;;;;;;;;4934161;29;20042;-78
2022/10/05 03:42:19;;;;;;;8.05;4.15;;;;;;;;;;4941686;29;20027;-78
2022/10/05 03:44:56;;;;;;;6.15;3.83;;;;;;;;;;4935545;29;20054;-79
2022/10/05 03:47:24;;;;;;;11.65;4.68;;;;;;;;;;4939299;29;20032;-80
2022/10/05 03:50:01;;;;;;;11.63;4.22;;;;;;;;;;4947853;29;20027;-80
2022/10/05 03:52:54;;;;;;;7.82;4.47;;;;;;;;;;4926528;29;20024;-79
2022/10/05 03:55:38;;;;;;;8.07;4.65;;;;;;;;;;4936123;29;20060;-79
2022/10/05 03:58:13;;;;;;;9.50;4.43;;;;;;;;;;4936231;29;20028;-79
2022/10/05 04:00:39;;;;;;;6.28;4.43;;;;;;;;;;4939179;29;20399;-79
2022/10/05 04:03:15;;;;;;;7.55;4.75;;;;;;;;;;4945999;29;20120;-79
2022/10/05 04:05:46;;;;;;;6.32;4.90;;;;;;;;;;4950071;29;20016;-80
2022/10/05 04:08:18;;;;;;;8.30;5.45;;;;;;;;;;4946229;29;20071;-80
2022/10/05 04:10:57;;;;;;;10.48;5.28;;;;;;;;;;4961156;29;20028;-79
2022/10/05 04:13:28;;;;;;;10.63;5.35;;;;;;;;;;4944394;29;20028;-79
2022/10/05 04:15:54;;;;;;;14.38;6.03;;;;;;;;;;4947563;29;20028;-80
2022/10/05 04:18:20;;;;;;;15.88;6.70;;;;;;;;;;4940210;29;20042;-79
2022/10/05 04:20:50;;;;;;;9.60;5.75;;;;;;;;;;4941109;29;20086;-79
2022/10/05 04:23:16;;;;;;;12.82;6.72;;;;;;;;;;4937276;29;20027;-76
2022/10/05 04:25:48;;;;;;;12.15;6.30;;;;;;;;;;4936929;29;20031;-78
2022/10/05 04:28:18;;;;;;;12.05;5.80;;;;;;;;;;4935609;29;20390;-78
2022/10/05 04:30:46;;;;;;;11.05;6.07;;;;;;;;;;4946426;28;20570;-80
2022/10/05 04:33:14;;;;;;;11.43;6.07;;;;;;;;;;4920542;29;20059;-79
2022/10/05 04:35:49;;;;;;;9.85;6.60;;;;;;;;;;4935581;29;20056;-79
2022/10/05 04:38:15;;;;;;;11.93;7.28;;;;;;;;;;4948508;29;20015;-82
2022/10/05 04:40:51;;;;;;;10.40;6.75;;;;;;;;;;4960909;28;20050;-80
2022/10/05 04:43:30;;;;;;;13.68;6.88;;;;;;;;;;4938893;29;20038;-79
2022/10/05 04:46:05;;;;;;;13.05;7.07;;;;;;;;;;4935298;29;20115;-79
2022/10/05 04:48:49;;;;;;;14.98;7.22;;;;;;;;;;4946405;28;20113;-79
2022/10/05 04:51:32;;;;;;;17.95;7.22;;;;;;;;;;4951182;29;20019;-79
2022/10/05 04:54:16;;;;;;;15.82;7.43;;;;;;;;;;4946388;29;20031;-79
2022/10/05 04:56:46;;;;;;;13.00;7.40;;;;;;;;;;4940515;29;20024;-80
2022/10/05 04:59:18;;;;;;;14.85;7.15;;;;;;;;;;4945005;29;20055;-76
2022/10/05 05:01:55;;;;;;;18.23;7.80;;;;;;;;;;4953148;29;20031;-80
2022/10/05 05:04:33;;;;;;;12.52;7.20;;;;;;;;;;4955810;29;20039;-80
2022/10/05 05:07:17;;;;;;;10.50;7.75;;;;;;;;;;4964220;28;20062;-80
2022/10/05 05:09:49;;;;;;;17.13;7.10;;;;;;;;;;4948920;29;20079;-80
2022/10/05 05:12:15;;;;;;;13.05;6.80;;;;;;;;;;4956957;28;20109;-77
2022/10/05 05:15:00;;;;;;;15.68;7.65;;;;;;;;;;4945713;29;20510;-78
2022/10/05 05:17:29;;;;;;;14.45;7.63;;;;;;;;;;4941729;29;20032;-78
2022/10/05 05:19:55;;;;;;;13.45;8.30;;;;;;;;;;4940812;29;20169;-80
2022/10/05 05:22:24;;;;;;;10.65;7.78;;;;;;;;;;4960401;28;20039;-82
2022/10/05 05:25:06;;;;;;;14.35;7.03;;;;;;;;;;4956892;28;20047;-81
2022/10/05 05:27:38;;;;;;;16.30;7.30;;;;;;;;;;4961045;28;20076;-82
2022/10/05 05:30:13;;;;;;;12.77;7.68;;;;;;;;;;4965370;28;20024;-82
2022/10/05 05:32:48;;;;;;;16.38;7.55;;;;;;;;;;4965237;29;20051;-79
2022/10/05 05:35:14;;;;;;;12.00;6.95;;;;;;;;;;4966598;28;20016;-81
2022/10/05 05:37:45;;;;;;;12.18;7.53;;;;;;;;;;4979194;28;20029;-78
2022/10/05 05:40:16;;;;;;;12.95;7.35;;;;;;;;;;4970401;28;20070;-80
2022/10/05 05:42:41;;;;;;;11.60;6.32;;;;;;;;;;4953340;29;20130;-79
2022/10/05 05:45:16;;;;;;;13.48;6.32;;;;;;;;;;4958862;28;20071;-78
2022/10/05 05:47:45;;;;;;;8.07;5.53;;;;;;;;;;4943908;29;20036;-78
2022/10/05 05:50:23;;;;;;;9.50;6.22;;;;;;;;;;4943024;29;20031;-78
2022/10/05 05:53:00;;;;;;;11.98;6.28;;;;;;;;;;4942083;28;20098;-77
2022/10/05 05:55:32;;;;;;;7.78;5.53;;;;;;;;;;4953402;29;20019;-80
2022/10/05 05:58:11;;;;;;;7.05;5.45;;;;;;;;;;4948537;29;20138;-78
2022/10/05 06:00:41;;;;;;;7.75;5.53;;;;;;;;;;4940476;29;20032;-79
2022/10/05 06:03:26;;;;;;;9.80;5.30;;;;;;;;;;4948335;29;20023;-80
2022/10/05 06:06:00;;;;;;;8.65;5.00;;;;;;;;;;4951331;29;20027;-80
2022/10/05 06:08:41;;;;;;;11.18;5.68;;;;;;;;;;4947674;29;20035;-77
2022/10/05 06:11:21;;;;;;;8.93;5.15;;;;;;;;;;4943633;29;20030;-79
2022/10/05 06:13:48;;;;;;;7.67;4.87;;;;;;;;;;4938844;29;20059;-78
2022/10/05 06:16:14;;;;;;;8.43;4.57;;;;;;;;;;4938350;29;20035;-79
2022/10/05 06:18:46;;;;;;;7.78;4.75;;;;;;;;;;4936145;29;20031;-77
2022/10/05 06:21:22;;;;;;;15.68;5.50;;;;;;;;;;4936942;29;20047;-78
2022/10/05 06:23:54;;;;;;;15.48;5.07;;;;;;;;;;4937711;29;20028;-79
2022/10/05 06:26:20;;;;;;;6.97;4.07;;;;;;;;;;4954153;29;20087;-80
2022/10/05 06:28:55;;;;;;;7.70;4.65;;;;;;;;;;4953169;29;20039;-79
2022/10/05 06:31:29;;;;;;;6.55;3.78;;;;;;;;;;4937409;29;20024;-82
2022/10/05 06:34:17;;;;;;;7.95;4.20;;;;;;;;;;4956856;28;20437;-78
2022/10/05 06:36:49;;;;;;;8.73;4.10;;;;;;;;;;4931997;29;20031;-80
2022/10/05 06:39:35;;;;;;;8.98;3.90;;;;;;;;;;4930639;29;20031;-80
2022/10/05 06:42:12;;;;;;;5.72;3.00;;;;;;;;;;4958458;29;20101;-80
2022/10/05 06:44:52;;;;;;;10.18;3.50;;;;;;;;;;4937132;29;20028;-79
2022/10/05 06:47:21;;;;;;;7.38;3.58;;;;;;;;;;4946926;29;20047;-79
2022/10/05 06:50:03;;;;;;;7.93;4.13;;;;;;;;;;4943099;29;20045;-79
2022/10/05 06:52:40;;;;;;;8.55;4.00;;;;;;;;;;4947876;29;20032;-80
2022/10/05 06:55:25;;;;;;;10.02;3.70;;;;;;;;;;4954259;29;20066;-79
2022/10/05 06:57:51;;;;;;;8.07;4.30;;;;;;;;;;4962853;28;20055;-80
2022/10/05 07:00:23;;;;;;;9.05;3.10;;;;;;;;;;4939114;28;20023;-81
2022/10/05 07:03:00;;;;;;;6.85;4.15;;;;;;;;;;4966949;28;20015;-83
2022/10/05 07:05:44;;;;;;;7.70;3.63;;;;;;;;;;4959818;29;20023;-75
2022/10/05 07:08:18;;;;;;;7.20;3.95;;;;;;;;;;4953345;29;20039;-81
2022/10/05 07:10:47;;;;;;;11.05;4.13;;;;;;;;;;4949822;29;20042;-80
2022/10/05 07:13:17;;;;;;;6.57;3.63;;;;;;;;;;4946094;29;20028;-80
2022/10/05 07:16:01;;;;;;;7.88;3.42;;;;;;;;;;4950367;28;20032;-80
2022/10/05 07:18:27;;;;;;;6.20;3.55;;;;;;;;;;4939011;29;20490;-79
2022/10/05 07:20:59;;;;;;;8.93;2.97;;;;;;;;;;4935717;29;20032;-74
2022/10/05 07:23:38;;;;;;;6.90;3.65;;;;;;;;;;4944292;28;20039;-76
2022/10/05 07:26:30;;;;;;;8.25;3.50;;;;;;;;;;4936544;29;20514;-78
2022/10/05 07:29:15;;;;;;;10.27;3.83;;;;;;;;;;4939692;29;20069;-78
2022/10/05 07:31:53;;;;;;;9.52;3.55;;;;;;;;;;4942432;29;20027;-79
2022/10/05 07:34:44;;;;;;;8.73;3.92;;;;;;;;;;4955159;29;20498;-77
2022/10/05 07:40:18;;;;;;;12.40;4.88;;;;;;;;;;4936544;29;19914;-79
2022/10/05 07:42:52;;;;;;;10.27;3.90;;;;;;;;;;4912728;29;20515;-78
2022/10/05 07:45:29;;;;;;;10.63;4.22;;;;;;;;;;4941971;29;20031;-77
2022/10/05 07:48:00;;;;;;;7.80;3.47;;;;;;;;;;4934587;29;20027;-78
2022/10/05 07:50:34;;;;;;;9.40;3.95;;;;;;;;;;4955737;29;20032;-78
2022/10/05 07:53:40;;;;;;;8.60;3.95;;;;;;;;;;4940160;29;20067;-78
2022/10/05 07:56:25;;;;;;;7.93;3.53;;;;;;;;;;4923687;29;20028;-78
2022/10/05 07:58:56;;;;;;;8.00;3.88;;;;;;;;;;4931503;29;20028;-78
2022/10/05 08:01:30;;;;;;;10.05;4.30;;;;;;;;;;4936851;29;20044;-77
2022/10/05 08:03:56;;;;;;;8.30;4.20;;;;;;;;;;4947360;29;20035;-78
2022/10/05 08:06:39;;;;;;;10.30;4.05;;;;;;;;;;4941623;28;20028;-78
2022/10/05 08:09:11;;;;;;;5.50;3.97;;;;;;;;;;4954034;29;20462;-78
2022/10/05 08:11:44;;;;;;;10.70;3.95;;;;;;;;;;4936303;29;20031;-79
2022/10/05 08:14:16;;;;;;;9.00;4.43;;;;;;;;;;4917237;29;20494;-78
2022/10/05 08:16:42;;;;;;;7.75;3.45;;;;;;;;;;4946944;29;20557;-78
2022/10/05 08:19:45;;;;;;;6.35;4.05;;;;;;;;;;4938627;28;20019;-74
2022/10/05 08:22:17;;;;;;;9.20;4.05;;;;;;;;;;4912607;29;20084;-79
2022/10/05 08:24:43;;;;;;;7.38;4.15;;;;;;;;;;4941220;28;20122;-79
2022/10/05 08:27:29;;;;;;;10.65;4.55;;;;;;;;;;4947885;29;20106;-78
2022/10/05 08:30:00;;;;;;;7.88;4.70;;;;;;;;;;4940778;28;20059;-77
2022/10/05 08:32:37;;;;;;;9.20;4.72;;;;;;;;;;4938060;29;20035;-76
2022/10/05 08:35:20;;;;;;;11.50;4.88;;;;;;;;;;4937867;29;20060;-78
2022/10/05 08:37:46;;;;;;;7.20;3.80;;;;;;;;;;4936447;29;20490;-77
2022/10/05 08:40:21;;;;;;;8.45;4.63;;;;;;;;;;4937684;29;20136;-77
2022/10/05 08:42:50;;;;;;;7.85;4.30;;;;;;;;;;4951547;29;20393;-77
2022/10/05 08:45:29;;;;;;;8.02;4.45;;;;;;;;;;4938082;29;20035;-78
2022/10/05 08:48:09;;;;;;;7.40;4.25;;;;;;;;;;4951349;29;20023;-78
2022/10/05 08:50:35;;;;;;;9.20;4.13;;;;;;;;;;4947778;29;20020;-78
2022/10/05 08:53:11;;;;;;;8.55;4.22;;;;;;;;;;4937604;29;20067;-77
2022/10/05 08:55:55;;;;;;;9.10;4.07;;;;;;;;;;4937495;29;20024;-75
2022/10/05 08:58:21;;;;;;;12.00;4.60;;;;;;;;;;4921987;29;20034;-78
2022/10/05 09:00:48;;;;;;;10.35;4.45;;;;;;;;;;4945223;29;20032;-78
2022/10/05 09:03:33;;;;;;;16.48;4.60;;;;;;;;;;4920256;29;20031;-78
2022/10/05 09:05:59;;;;;;;9.77;4.70;;;;;;;;;;4938079;29;20098;-78
2022/10/05 09:08:34;;;;;;;10.48;3.83;;;;;;;;;;4949953;29;20055;-77
2022/10/05 09:11:01;;;;;;;7.75;4.07;;;;;;;;;;4937551;29;20024;-78
2022/10/05 09:13:27;;;;;;;6.97;3.55;;;;;;;;;;4937756;29;20079;-78
2022/10/05 09:15:59;;;;;;;8.13;4.05;;;;;;;;;;4920639;29;20064;-78
2022/10/05 09:18:44;;;;;;;7.13;4.35;;;;;;;;;;4937118;29;20054;-78
2022/10/05 09:21:32;;;;;;;8.77;4.75;;;;;;;;;;4951083;29;20034;-77
2022/10/05 09:24:13;;;;;;;7.43;4.10;;;;;;;;;;4947470;28;20031;-77
2022/10/05 09:26:42;;;;;;;12.23;5.32;;;;;;;;;;4936788;29;20460;-78
2022/10/05 09:29:18;;;;;;;7.25;4.22;;;;;;;;;;4919856;29;20028;-77
2022/10/05 09:32:05;;;;;;;8.25;3.70;;;;;;;;;;4951023;29;20087;-78
2022/10/05 09:34:50;;;;;;;9.57;3.85;;;;;;;;;;4919308;29;20074;-77
2022/10/05 09:37:34;;;;;;;7.50;3.90;;;;;;;;;;4935387;29;20035;-77
2022/10/05 09:40:19;;;;;;;11.30;4.20;;;;;;;;;;4937951;29;20032;-79
2022/10/05 09:43:00;;;;;;;9.77;3.50;;;;;;;;;;4951132;29;20035;-76
2022/10/05 09:45:35;;;;;;;8.17;3.77;;;;;;;;;;4936115;29;20074;-76
2022/10/05 09:48:13;;;;;;;6.30;3.80;;;;;;;;;;4937111;29;20024;-78
2022/10/05 09:50:57;;;;;;;7.03;3.70;;;;;;;;;;4947164;29;20429;-77
2022/10/05 09:53:39;;;;;;;9.43;3.63;;;;;;;;;;4935747;29;20130;-77
2022/10/05 09:56:27;;;;;;;5.32;3.00;;;;;;;;;;4937170;29;20422;-78
2022/10/05 09:59:06;;;;;;;5.07;3.20;;;;;;;;;;4940890;29;20074;-78
2022/10/05 10:01:47;;;;;;;6.45;3.40;;;;;;;;;;4935294;29;20443;-77
2022/10/05 10:04:14;;;;;;;;;;;;;;;;;;4937188;29;20039;-78
2022/10/05 10:06:50;;;;;;;7.57;3.88;;;;;;;;;;4937026;29;19926;-77
2022/10/05 10:09:33;;;;;;;9.27;3.35;;;;;;;;;;4936518;29;20086;-78
2022/10/05 10:12:08;;;;;;;8.30;3.83;;;;;;;;;;4956379;29;20074;-77
2022/10/05 10:14:54;;;;;;;8.05;3.22;;;;;;;;;;4924313;29;20047;-79
2022/10/05 10:17:23;;;;;;;6.13;3.08;;;;;;;;;;4945966;29;20557;-78
2022/10/05 10:20:04;;;;;;;8.43;3.70;;;;;;;;;;4922379;29;20035;-77
2022/10/05 10:22:30;;;;;;;8.40;3.63;;;;;;;;;;4937185;29;20028;-78
2022/10/05 10:25:18;;;;;;;9.43;3.30;;;;;;;;;;4938569;29;20051;-78
2022/10/05 10:27:47;;;;;;;4.78;2.95;;;;;;;;;;4951564;29;20019;-77
2022/10/05 10:30:31;;;;;;;9.00;3.58;;;;;;;;;;4958562;29;20023;-78
2022/10/05 10:33:27;;;;;;;8.52;3.30;;;;;;;;;;4971722;29;20012;-78
2022/10/05 10:36:06;;;;;;;8.57;3.70;;;;;;;;;;4958681;28;20027;-78
2022/10/05 10:38:32;;;;;;;6.45;3.25;;;;;;;;;;4957329;29;20059;-76
2022/10/05 10:41:16;;;;;;;7.78;3.60;;;;;;;;;;4953473;29;20058;-78
2022/10/05 10:43:48;;;;;;;5.57;2.97;;;;;;;;;;4956030;29;20031;-79
2022/10/05 10:46:24;;;;;;;8.40;3.25;;;;;;;;;;4941082;29;20028;-76
2022/10/05 10:49:00;;;;;;;10.50;3.58;;;;;;;;;;4935849;29;20050;-77
2022/10/05 10:51:45;;;;;;;5.50;3.22;;;;;;;;;;4936615;29;20091;-77
2022/10/05 10:54:19;;;;;;;6.68;3.15;;;;;;;;;;4947418;29;20027;-78
2022/10/05 10:57:03;;;;;;;4.57;2.70;;;;;;;;;;4949170;29;20052;-77
2022/10/05 10:59:44;;;;;;;10.38;3.17;;;;;;;;;;4945652;29;20031;-77
2022/10/05 11:02:13;;;;;;;8.30;3.13;;;;;;;;;;4955099;29;20035;-78
2022/10/05 11:04:39;;;;;;;5.43;3.20;;;;;;;;;;4939559;29;20435;-78
2022/10/05 11:07:24;;;;;;;5.93;2.80;;;;;;;;;;4935273;29;20124;-76
2022/10/05 11:09:53;;;;;;;7.57;2.75;;;;;;;;;;4935696;29;20483;-77
2022/10/05 11:12:34;;;;;;;6.47;3.25;;;;;;;;;;4945336;29;20034;-78
2022/10/05 11:15:07;;;;;;;9.05;3.17;;;;;;;;;;4936444;29;20063;-77
2022/10/05 11:17:53;;;;;;;10.02;2.92;;;;;;;;;;4935401;29;20034;-76
2022/10/05 11:20:37;;;;;;;7.15;3.22;;;;;;;;;;4947286;29;20502;-78
2022/10/05 11:23:03;;;;;;;3.30;2.50;;;;;;;;;;4949193;29;20035;-78
2022/10/05 11:25:32;;;;;;;5.38;2.33;;;;;;;;;;4944234;29;20102;-78
2022/10/05 11:28:26;;;;;;;4.78;2.50;;;;;;;;;;4952343;29;20094;-78
2022/10/05 11:30:54;;;;;;;8.02;2.90;;;;;;;;;;4935805;29;20091;-78
2022/10/05 11:33:41;;;;;;;3.55;2.30;;;;;;;;;;4932957;29;20024;-77
2022/10/05 11:36:07;;;;;;;5.95;2.38;;;;;;;;;;4947972;29;20500;-78
2022/10/05 11:38:43;;;;;;;10.82;3.20;;;;;;;;;;4940540;28;20028;-78
2022/10/05 11:41:24;;;;;;;6.15;2.63;;;;;;;;;;4939803;29;20391;-76
2022/10/05 11:44:02;;;;;;;2.85;2.10;;;;;;;;;;4921722;29;20356;-78
2022/10/05 11:46:47;;;;;;;7.07;2.75;;;;;;;;;;4937104;29;20059;-78
2022/10/05 11:49:23;;;;;;;9.23;2.63;;;;;;;;;;4935870;29;20068;-78
2022/10/05 11:51:54;;;;;;;3.25;2.15;;;;;;;;;;4948410;28;20024;-77
2022/10/05 11:54:27;;;;;;;9.60;2.53;;;;;;;;;;4948524;28;20035;-75
2022/10/05 11:56:59;;;;;;;5.07;1.70;;;;;;;;;;4954873;29;20031;-77
2022/10/05 11:59:33;;;;;;;2.95;2.08;;;;;;;;;;4951732;28;20288;-78
2022/10/05 12:02:14;;;;;;;7.53;2.10;;;;;;;;;;4939434;29;20027;-77
2022/10/05 12:04:49;;;;;;;3.00;1.75;;;;;;;;;;4938424;29;20063;-77
2022/10/05 12:07:31;;;;;;;4.40;2.20;;;;;;;;;;4938209;29;20035;-77
2022/10/05 12:10:16;;;;;;;4.40;2.30;;;;;;;;;;4938894;29;20024;-76
2022/10/05 12:12:58;;;;;;;5.53;2.28;;;;;;;;;;4940108;29;20031;-77
2022/10/05 12:15:31;;;;;;;7.38;2.45;;;;;;;;;;4953487;28;20047;-78
2022/10/05 12:18:12;;;;;;;4.78;2.20;;;;;;;;;;4952431;29;20043;-77
2022/10/05 12:20:40;;;;;;;3.20;1.83;;;;;;;;;;4947530;29;20071;-78
2022/10/05 12:23:19;;;;;;;8.52;2.60;;;;;;;;;;4940677;29;20026;-77
2022/10/05 12:25:48;;;;;;;3.83;2.03;;;;;;;;;;4946510;29;20016;-78
2022/10/05 12:28:16;;;;;;;5.93;2.78;;;;;;;;;;4949132;28;20495;-77
2022/10/05 12:30:58;;;;;;;4.57;2.10;;;;;;;;;;4939790;29;20382;-77
2022/10/05 12:33:31;;;;;;;5.85;2.47;;;;;;;;;;4940279;28;20030;-78
2022/10/05 12:36:01;;;;;;;5.20;2.30;;;;;;;;;;4969409;28;20031;-76
2022/10/05 12:38:35;;;;;;;3.58;2.38;;;;;;;;;;4951461;28;20410;-77
2022/10/05 12:41:12;;;;;;;9.63;2.90;;;;;;;;;;4950853;29;20135;-77
2022/10/05 12:43:49;;;;;;;7.05;2.78;;;;;;;;;;4957297;29;20027;-77
2022/10/05 12:46:16;;;;;;;5.60;2.65;;;;;;;;;;4928874;28;20112;-77
2022/10/05 12:48:51;;;;;;;7.00;2.75;;;;;;;;;;4945035;28;20019;-77
2022/10/05 12:51:33;;;;;;;10.57;2.97;;;;;;;;;;4967390;28;20027;-78
2022/10/05 12:54:03;;;;;;;9.57;2.30;;;;;;;;;;4938371;29;20038;-78
2022/10/05 12:56:44;;;;;;;6.45;2.92;;;;;;;;;;4940149;29;20038;-78
2022/10/05 12:59:12;;;;;;;6.10;2.15;;;;;;;;;;4941986;29;20032;-77
2022/10/05 13:01:41;;;;;;;7.00;2.30;;;;;;;;;;4955030;29;20529;-81
2022/10/05 13:04:18;;;;;;;3.38;2.35;;;;;;;;;;4945833;29;20099;-80
2022/10/05 13:07:04;;;;;;;5.60;2.47;;;;;;;;;;4969551;28;20035;-77
2022/10/05 13:09:46;;;;;;;4.03;1.98;;;;;;;;;;4957235;28;20074;-77
2022/10/05 13:12:24;;;;;;;7.47;2.55;;;;;;;;;;4946900;29;20118;-77
2022/10/05 13:14:57;;;;;;;4.32;2.72;;;;;;;;;;4937038;29;20023;-77
2022/10/05 13:17:43;;;;;;;8.82;2.20;;;;;;;;;;4937560;29;20033;-76
2022/10/05 13:20:22;;;;;;;8.38;2.72;;;;;;;;;;4937978;29;20147;-78
2022/10/05 13:22:53;;;;;;;7.65;2.85;;;;;;;;;;4951553;29;20050;-77
2022/10/05 13:25:32;;;;;;;4.43;2.10;;;;;;;;;;4937868;29;20054;-78
2022/10/05 13:28:01;;;;;;;5.50;2.00;;;;;;;;;;4950047;29;20031;-78
2022/10/05 13:30:28;;;;;;;3.65;1.77;;;;;;;;;;4946900;29;20060;-78
2022/10/05 13:33:00;;;;;;;5.57;2.45;;;;;;;;;;4937950;29;20028;-77
2022/10/05 13:35:29;;;;;;;2.38;1.92;;;;;;;;;;4936477;29;20023;-77
2022/10/05 13:38:04;;;;;;;3.05;2.03;;;;;;;;;;4948926;29;20027;-77
2022/10/05 13:40:48;;;;;;;3.95;1.95;;;;;;;;;;4936649;29;20023;-77
2022/10/05 13:43:15;;;;;;;1.83;1.63;;;;;;;;;;4936412;29;20040;-77
2022/10/05 13:45:44;;;;;;;4.53;2.08;;;;;;;;;;4946812;29;20043;-79
2022/10/05 13:48:15;;;;;;;7.05;2.38;;;;;;;;;;4952172;29;20016;-78
2022/10/05 13:50:44;;;;;;;4.15;1.77;;;;;;;;;;4937271;29;20027;-77
2022/10/05 13:53:23;;;;;;;4.28;1.65;;;;;;;;;;4936460;29;20042;-77
2022/10/05 13:55:49;;;;;;;5.53;2.38;;;;;;;;;;4936762;29;20082;-74
2022/10/05 13:58:15;;;;;;;2.67;1.75;;;;;;;;;;4935497;29;20016;-76
2022/10/05 14:00:52;;;;;;;4.65;2.13;;;;;;;;;;4944985;29;20032;-77
2022/10/05 14:03:26;;;;;;;5.28;2.00;;;;;;;;;;4918941;29;20027;-77
2022/10/05 14:05:56;;;;;;;3.83;1.80;;;;;;;;;;4918966;29;20042;-77
2022/10/05 14:08:24;;;;;;;3.28;2.03;;;;;;;;;;4935355;29;20028;-77
2022/10/05 14:10:52;;;;;;;3.10;1.70;;;;;;;;;;4936013;29;20030;-78
2022/10/05 14:13:27;;;;;;;4.93;1.95;;;;;;;;;;4935787;29;20078;-76
2022/10/05 14:16:14;;;;;;;4.18;2.00;;;;;;;;;;4936374;29;20048;-78
2022/10/05 14:18:51;;;;;;;4.75;1.90;;;;;;;;;;4942626;29;20068;-78
2022/10/05 14:21:17;;;;;;;6.95;2.58;;;;;;;;;;4939876;29;20023;-76
2022/10/05 14:23:43;;;;;;;2.70;1.80;;;;;;;;;;4934787;29;20031;-77
2022/10/05 14:26:35;;;;;;;7.35;2.70;;;;;;;;;;4935257;29;20055;-79
2022/10/05 14:29:18;;;;;;;3.35;2.13;;;;;;;;;;4932420;29;20040;-78
2022/10/05 14:31:49;;;;;;;3.80;2.13;;;;;;;;;;4935158;29;20347;-78
2022/10/05 14:34:26;;;;;;;3.70;1.92;;;;;;;;;;4935517;29;20231;-77
2022/10/05 14:37:00;;;;;;;11.65;2.42;;;;;;;;;;4934839;29;20034;-77
2022/10/05 14:39:27;;;;;;;5.45;1.70;;;;;;;;;;4934853;29;20035;-77
2022/10/05 14:41:53;;;;;;;5.13;2.15;;;;;;;;;;4934667;29;20402;-77
2022/10/05 14:44:25;;;;;;;4.15;2.13;;;;;;;;;;4947266;29;20479;-77
2022/10/05 14:47:01;;;;;;;4.10;1.90;;;;;;;;;;4935799;28;20024;-74
2022/10/05 14:49:27;;;;;;;9.07;5.32;;;;;;;;;;4957271;28;20019;-74
2022/10/05 14:51:54;;;;;;;13.48;6.45;;;;;;;;;;4951655;28;20054;-74
2022/10/05 14:54:20;;;;;;;22.13;13.65;;;;;;;;;;4942304;28;20582;-75
2022/10/05 14:56:54;;;;;;;5.97;3.63;;;;;;;;;;4961222;28;20169;-75
2022/10/05 14:59:29;;;;;;;14.65;5.10;;;;;;;;;;4959188;28;20046;-74
2022/10/05 15:02:14;;;;;;;10.23;2.58;;;;;;;;;;4942349;28;20062;-75
2022/10/05 15:05:00;;;;;;;4.22;3.00;;;;;;;;;;4948832;28;20034;-74
2022/10/05 15:07:37;;;;;;;25.90;13.27;;;;;;;;;;4964081;28;20027;-73
2022/10/05 15:10:12;;;;;;;7.72;2.35;;;;;;;;;;4948903;28;20039;-74
2022/10/05 15:12:41;;;;;;;7.07;3.03;;;;;;;;;;4943096;28;20043;-75
2022/10/05 15:15:24;;;;;;;5.80;2.22;;;;;;;;;;4943047;28;20078;-76
2022/10/05 15:17:53;;;;;;;8.25;4.75;;;;;;;;;;4962290;28;20034;-72
2022/10/05 15:20:24;;;;;;;16.95;8.77;;;;;;;;;;4948654;28;20032;-72
2022/10/05 15:22:58;;;;;;;7.32;3.10;;;;;;;;;;4945955;28;20083;-74
2022/10/05 15:25:29;;;;;;;7.20;4.22;;;;;;;;;;4947586;28;20113;-73
2022/10/05 15:27:55;;;;;;;7.18;4.60;;;;;;;;;;4961261;28;20033;-73
2022/10/05 15:30:22;;;;;;;12.45;3.03;;;;;;;;;;4947511;28;20027;-74
2022/10/05 15:32:48;;;;;;;6.18;3.50;;;;;;;;;;4944144;28;20036;-71
2022/10/05 15:35:20;;;;;;;6.15;4.20;;;;;;;;;;4943909;28;20027;-74
2022/10/05 15:37:50;;;;;;;8.43;5.80;;;;;;;;;;4963413;28;20031;-75
2022/10/05 15:40:26;;;;;;;15.15;9.10;;;;;;;;;;4947312;28;20031;-75
2022/10/05 15:42:55;;;;;;;31.17;16.90;;;;;;;;;;4944685;28;20031;-75
2022/10/05 15:45:29;;;;;;;17.50;9.18;;;;;;;;;;4946721;28;20037;-74
2022/10/05 15:47:58;;;;;;;15.32;8.48;;;;;;;;;;4963909;28;20028;-73